sensor_id;sensor_type;location;lat;lon;timestamp;pressure;altitude;pressure_sealevel;temperature;humidity
26657;BME280;14279;50.010;8.260;2022-08-27T00:01:55;100226.56;;;21.87;68.98
26657;BME280;14279;50.010;8.260;2022-08-27T00:04:20;100217.63;;;21.88;69.20
26657;BME280;14279;50.010;8.260;2022-08-27T00:06:46;100217.63;;;22.06;68.25
26657;BME280;14279;50.010;8.260;2022-08-27T00:09:11;100219.53;;;21.96;68.76
26657;BME280;14279;50.010;8.260;2022-08-27T00:11:36;100223.69;;;21.98;68.90
26657;BME280;14279;50.010;8.260;2022-08-27T00:14:02;100214.72;;;21.81;69.29
26657;BME280;14279;50.010;8.260;2022-08-27T00:16:28;100215.47;;;21.73;69.41
26657;BME280;14279;50.010;8.260;2022-08-27T00:18:54;100218.34;;;21.80;69.42
26657;BME280;14279;50.010;8.260;2022-08-27T00:21:20;100219.31;;;21.79;69.37
26657;BME280;14279;50.010;8.260;2022-08-27T00:23:46;100221.06;;;21.70;69.79
26657;BME280;14279;50.010;8.260;2022-08-27T00:26:12;100205.03;;;21.72;69.99
26657;BME280;14279;50.010;8.260;2022-08-27T00:28:39;100219.09;;;21.72;70.09
26657;BME280;14279;50.010;8.260;2022-08-27T00:31:04;100214.06;;;21.97;69.32
26657;BME280;14279;50.010;8.260;2022-08-27T00:33:30;100222.78;;;21.89;69.70
26657;BME280;14279;50.010;8.260;2022-08-27T00:35:55;100221.97;;;21.79;70.32
26657;BME280;14279;50.010;8.260;2022-08-27T00:38:21;100223.81;;;21.79;70.08
26657;BME280;14279;50.010;8.260;2022-08-27T00:40:47;100218.84;;;21.66;70.38
26657;BME280;14279;50.010;8.260;2022-08-27T00:43:13;100221.66;;;21.64;70.16
26657;BME280;14279;50.010;8.260;2022-08-27T00:45:44;100221.59;;;21.74;69.73
26657;BME280;14279;50.010;8.260;2022-08-27T00:48:13;100217.53;;;21.80;69.82
26657;BME280;14279;50.010;8.260;2022-08-27T00:50:47;100204.22;;;21.89;69.45
26657;BME280;14279;50.010;8.260;2022-08-27T00:53:18;100205.00;;;22.00;69.17
26657;BME280;14279;50.010;8.260;2022-08-27T00:55:46;100209.22;;;21.92;69.07
26657;BME280;14279;50.010;8.260;2022-08-27T00:58:30;100212.47;;;21.86;69.50
26657;BME280;14279;50.010;8.260;2022-08-27T01:00:57;100206.09;;;21.79;69.77
26657;BME280;14279;50.010;8.260;2022-08-27T01:03:22;100209.34;;;21.73;69.99
26657;BME280;14279;50.010;8.260;2022-08-27T01:05:50;100200.13;;;21.77;70.23
26657;BME280;14279;50.010;8.260;2022-08-27T01:08:27;100202.50;;;21.98;69.22
26657;BME280;14279;50.010;8.260;2022-08-27T01:10:56;100188.25;;;21.99;69.14
26657;BME280;14279;50.010;8.260;2022-08-27T01:13:24;100206.34;;;21.86;69.27
26657;BME280;14279;50.010;8.260;2022-08-27T01:15:50;100200.19;;;21.85;69.71
26657;BME280;14279;50.010;8.260;2022-08-27T01:18:18;100205.56;;;21.75;69.97
26657;BME280;14279;50.010;8.260;2022-08-27T01:21:09;100205.66;;;21.84;69.19
26657;BME280;14279;50.010;8.260;2022-08-27T01:23:45;100211.53;;;21.77;69.72
26657;BME280;14279;50.010;8.260;2022-08-27T01:26:15;100205.09;;;21.80;69.76
26657;BME280;14279;50.010;8.260;2022-08-27T01:28:41;100210.91;;;21.66;70.39
26657;BME280;14279;50.010;8.260;2022-08-27T01:31:09;100207.66;;;21.72;70.49
26657;BME280;14279;50.010;8.260;2022-08-27T01:33:35;100207.56;;;21.64;70.77
26657;BME280;14279;50.010;8.260;2022-08-27T01:36:01;100204.63;;;21.67;69.95
26657;BME280;14279;50.010;8.260;2022-08-27T01:38:27;100203.25;;;21.53;70.67
26657;BME280;14279;50.010;8.260;2022-08-27T01:40:53;100198.66;;;21.55;70.63
26657;BME280;14279;50.010;8.260;2022-08-27T01:43:19;100208.84;;;21.50;70.88
26657;BME280;14279;50.010;8.260;2022-08-27T01:45:48;100206.06;;;21.51;71.06
26657;BME280;14279;50.010;8.260;2022-08-27T01:48:16;100210.97;;;21.46;71.27
26657;BME280;14279;50.010;8.260;2022-08-27T01:53:13;100197.44;;;21.49;70.77
26657;BME280;14279;50.010;8.260;2022-08-27T01:55:40;100202.16;;;21.45;71.17
26657;BME280;14279;50.010;8.260;2022-08-27T01:58:06;100205.78;;;21.54;70.94
26657;BME280;14279;50.010;8.260;2022-08-27T02:00:35;100197.50;;;21.57;71.00
26657;BME280;14279;50.010;8.260;2022-08-27T02:03:01;100196.50;;;21.68;70.45
26657;BME280;14279;50.010;8.260;2022-08-27T02:05:27;100198.41;;;21.48;70.76
26657;BME280;14279;50.010;8.260;2022-08-27T02:07:53;100200.94;;;21.40;71.31
26657;BME280;14279;50.010;8.260;2022-08-27T02:10:23;100193.41;;;21.45;71.17
26657;BME280;14279;50.010;8.260;2022-08-27T02:12:49;100190.88;;;21.53;71.05
26657;BME280;14279;50.010;8.260;2022-08-27T02:15:15;100195.19;;;21.44;71.20
26657;BME280;14279;50.010;8.260;2022-08-27T02:17:40;100196.75;;;21.47;70.97
26657;BME280;14279;50.010;8.260;2022-08-27T02:20:07;100195.91;;;21.46;70.86
26657;BME280;14279;50.010;8.260;2022-08-27T02:22:33;100189.44;;;21.21;71.95
26657;BME280;14279;50.010;8.260;2022-08-27T02:24:59;100191.19;;;21.40;72.03
26657;BME280;14279;50.010;8.260;2022-08-27T02:27:24;100189.03;;;21.16;72.55
26657;BME280;14279;50.010;8.260;2022-08-27T02:29:49;100173.00;;;21.27;72.08
26657;BME280;14279;50.010;8.260;2022-08-27T02:32:16;100185.81;;;21.22;72.03
26657;BME280;14279;50.010;8.260;2022-08-27T02:34:41;100176.72;;;21.35;71.97
26657;BME280;14279;50.010;8.260;2022-08-27T02:37:07;100181.38;;;21.13;72.56
26657;BME280;14279;50.010;8.260;2022-08-27T02:39:33;100187.09;;;21.18;72.36
26657;BME280;14279;50.010;8.260;2022-08-27T02:41:58;100189.00;;;21.26;72.01
26657;BME280;14279;50.010;8.260;2022-08-27T02:44:24;100191.34;;;21.39;71.75
26657;BME280;14279;50.010;8.260;2022-08-27T02:46:49;100191.38;;;21.29;71.85
26657;BME280;14279;50.010;8.260;2022-08-27T02:49:14;100186.94;;;21.29;71.92
26657;BME280;14279;50.010;8.260;2022-08-27T02:51:39;100184.00;;;21.23;72.61
26657;BME280;14279;50.010;8.260;2022-08-27T02:54:05;100186.94;;;21.20;72.37
26657;BME280;14279;50.010;8.260;2022-08-27T02:56:30;100189.88;;;21.26;72.10
26657;BME280;14279;50.010;8.260;2022-08-27T02:58:56;100192.63;;;21.25;72.34
26657;BME280;14279;50.010;8.260;2022-08-27T03:01:22;100186.53;;;21.24;72.29
26657;BME280;14279;50.010;8.260;2022-08-27T03:03:47;100184.72;;;21.15;72.73
26657;BME280;14279;50.010;8.260;2022-08-27T03:06:12;100188.19;;;21.25;72.07
26657;BME280;14279;50.010;8.260;2022-08-27T03:08:38;100192.53;;;21.07;73.39
26657;BME280;14279;50.010;8.260;2022-08-27T03:11:03;100190.94;;;20.86;73.87
26657;BME280;14279;50.010;8.260;2022-08-27T03:13:31;100192.44;;;20.98;73.61
26657;BME280;14279;50.010;8.260;2022-08-27T03:16:00;100193.97;;;21.01;73.53
26657;BME280;14279;50.010;8.260;2022-08-27T03:18:25;100197.97;;;21.15;72.86
26657;BME280;14279;50.010;8.260;2022-08-27T03:20:52;100197.00;;;21.06;73.20
26657;BME280;14279;50.010;8.260;2022-08-27T03:23:20;100199.28;;;20.91;73.58
26657;BME280;14279;50.010;8.260;2022-08-27T03:25:52;100199.50;;;21.08;73.09
26657;BME280;14279;50.010;8.260;2022-08-27T03:28:20;100199.25;;;21.01;73.11
26657;BME280;14279;50.010;8.260;2022-08-27T03:30:51;100201.22;;;20.89;73.44
26657;BME280;14279;50.010;8.260;2022-08-27T03:33:19;100195.84;;;20.81;74.20
26657;BME280;14279;50.010;8.260;2022-08-27T03:35:46;100191.75;;;20.96;73.84
26657;BME280;14279;50.010;8.260;2022-08-27T03:38:11;100195.94;;;20.89;73.99
26657;BME280;14279;50.010;8.260;2022-08-27T03:40:37;100194.13;;;20.99;73.83
26657;BME280;14279;50.010;8.260;2022-08-27T03:43:02;100188.44;;;20.84;74.04
26657;BME280;14279;50.010;8.260;2022-08-27T03:45:28;100189.00;;;20.78;74.22
26657;BME280;14279;50.010;8.260;2022-08-27T03:47:54;100190.63;;;20.99;73.47
26657;BME280;14279;50.010;8.260;2022-08-27T03:50:19;100185.19;;;21.00;73.33
26657;BME280;14279;50.010;8.260;2022-08-27T03:52:44;100185.28;;;21.09;73.16
26657;BME280;14279;50.010;8.260;2022-08-27T03:55:10;100192.59;;;20.87;73.66
26657;BME280;14279;50.010;8.260;2022-08-27T03:57:35;100188.41;;;20.94;73.71
26657;BME280;14279;50.010;8.260;2022-08-27T04:00:00;100190.38;;;20.92;73.53
26657;BME280;14279;50.010;8.260;2022-08-27T04:02:26;100186.75;;;20.93;73.43
26657;BME280;14279;50.010;8.260;2022-08-27T04:04:52;100188.91;;;21.08;72.90
26657;BME280;14279;50.010;8.260;2022-08-27T04:07:17;100194.69;;;20.93;73.57
26657;BME280;14279;50.010;8.260;2022-08-27T04:09:43;100199.25;;;21.01;73.15
26657;BME280;14279;50.010;8.260;2022-08-27T04:12:08;100193.00;;;20.72;74.45
26657;BME280;14279;50.010;8.260;2022-08-27T04:14:34;100196.50;;;20.83;74.06
26657;BME280;14279;50.010;8.260;2022-08-27T04:16:59;100186.75;;;20.73;74.13
26657;BME280;14279;50.010;8.260;2022-08-27T04:19:25;100192.88;;;20.84;74.03
26657;BME280;14279;50.010;8.260;2022-08-27T04:21:51;100200.69;;;20.85;73.75
26657;BME280;14279;50.010;8.260;2022-08-27T04:24:17;100202.38;;;20.77;73.81
26657;BME280;14279;50.010;8.260;2022-08-27T04:26:42;100199.56;;;20.68;74.36
26657;BME280;14279;50.010;8.260;2022-08-27T04:29:09;100201.53;;;20.76;74.11
26657;BME280;14279;50.010;8.260;2022-08-27T04:31:34;100207.22;;;20.71;74.16
26657;BME280;14279;50.010;8.260;2022-08-27T04:34:00;100212.50;;;20.71;74.40
26657;BME280;14279;50.010;8.260;2022-08-27T04:36:25;100203.59;;;20.72;74.21
26657;BME280;14279;50.010;8.260;2022-08-27T04:38:50;100209.59;;;20.75;73.87
26657;BME280;14279;50.010;8.260;2022-08-27T04:41:16;100211.13;;;20.77;74.19
26657;BME280;14279;50.010;8.260;2022-08-27T04:44:03;100213.91;;;20.76;74.25
26657;BME280;14279;50.010;8.260;2022-08-27T04:46:31;100230.88;;;20.63;74.69
26657;BME280;14279;50.010;8.260;2022-08-27T04:48:58;100230.47;;;20.68;74.48
26657;BME280;14279;50.010;8.260;2022-08-27T04:51:25;100224.22;;;20.69;74.54
26657;BME280;14279;50.010;8.260;2022-08-27T04:53:50;100216.69;;;20.64;74.71
26657;BME280;14279;50.010;8.260;2022-08-27T04:56:17;100215.44;;;20.88;74.01
26657;BME280;14279;50.010;8.260;2022-08-27T04:58:45;100218.34;;;20.85;74.01
26657;BME280;14279;50.010;8.260;2022-08-27T05:01:24;100216.97;;;20.91;73.97
26657;BME280;14279;50.010;8.260;2022-08-27T05:03:49;100213.19;;;20.93;74.07
26657;BME280;14279;50.010;8.260;2022-08-27T05:06:16;100216.00;;;20.92;73.79
26657;BME280;14279;50.010;8.260;2022-08-27T05:08:41;100218.78;;;20.80;74.21
26657;BME280;14279;50.010;8.260;2022-08-27T05:11:10;100220.69;;;20.98;73.80
26657;BME280;14279;50.010;8.260;2022-08-27T05:13:36;100219.47;;;20.82;73.99
26657;BME280;14279;50.010;8.260;2022-08-27T05:16:05;100224.63;;;20.94;73.85
26657;BME280;14279;50.010;8.260;2022-08-27T05:18:30;100233.81;;;20.70;74.28
26657;BME280;14279;50.010;8.260;2022-08-27T05:20:56;100243.00;;;20.76;74.24
26657;BME280;14279;50.010;8.260;2022-08-27T05:23:22;100238.09;;;20.61;74.54
26657;BME280;14279;50.010;8.260;2022-08-27T05:25:49;100234.50;;;20.52;75.03
26657;BME280;14279;50.010;8.260;2022-08-27T05:28:16;100222.81;;;20.75;74.10
26657;BME280;14279;50.010;8.260;2022-08-27T05:30:45;100222.81;;;20.75;74.43
26657;BME280;14279;50.010;8.260;2022-08-27T05:33:13;100224.22;;;20.79;74.34
26657;BME280;14279;50.010;8.260;2022-08-27T05:35:43;100225.72;;;21.01;73.38
26657;BME280;14279;50.010;8.260;2022-08-27T05:38:10;100224.22;;;20.89;73.94
26657;BME280;14279;50.010;8.260;2022-08-27T05:40:36;100220.16;;;20.75;73.95
26657;BME280;14279;50.010;8.260;2022-08-27T05:43:02;100223.34;;;20.68;74.24
26657;BME280;14279;50.010;8.260;2022-08-27T05:45:27;100223.50;;;20.67;74.61
26657;BME280;14279;50.010;8.260;2022-08-27T05:47:53;100235.19;;;20.64;74.62
26657;BME280;14279;50.010;8.260;2022-08-27T05:50:18;100247.44;;;20.65;74.69
26657;BME280;14279;50.010;8.260;2022-08-27T05:52:44;100237.72;;;20.56;74.79
26657;BME280;14279;50.010;8.260;2022-08-27T05:55:09;100233.78;;;20.50;75.58
26657;BME280;14279;50.010;8.260;2022-08-27T05:57:34;100234.50;;;20.62;75.27
26657;BME280;14279;50.010;8.260;2022-08-27T05:59:59;100221.84;;;20.66;74.78
26657;BME280;14279;50.010;8.260;2022-08-27T06:02:43;100231.72;;;20.73;74.79
26657;BME280;14279;50.010;8.260;2022-08-27T06:05:10;100233.25;;;20.86;73.97
26657;BME280;14279;50.010;8.260;2022-08-27T06:07:35;100228.09;;;21.04;73.35
26657;BME280;14279;50.010;8.260;2022-08-27T06:10:01;100230.03;;;21.02;73.34
26657;BME280;14279;50.010;8.260;2022-08-27T06:12:26;100231.16;;;20.99;73.19
26657;BME280;14279;50.010;8.260;2022-08-27T06:14:51;100236.06;;;20.84;73.46
26657;BME280;14279;50.010;8.260;2022-08-27T06:17:17;100239.78;;;21.01;72.84
26657;BME280;14279;50.010;8.260;2022-08-27T06:19:42;100237.41;;;21.08;72.82
26657;BME280;14279;50.010;8.260;2022-08-27T06:22:08;100233.25;;;20.86;73.33
26657;BME280;14279;50.010;8.260;2022-08-27T06:24:33;100230.59;;;20.86;73.70
26657;BME280;14279;50.010;8.260;2022-08-27T06:26:59;100248.16;;;20.87;73.23
26657;BME280;14279;50.010;8.260;2022-08-27T06:29:24;100240.47;;;21.13;72.74
26657;BME280;14279;50.010;8.260;2022-08-27T06:31:50;100245.81;;;20.94;73.39
26657;BME280;14279;50.010;8.260;2022-08-27T06:34:17;100240.38;;;20.85;73.43
26657;BME280;14279;50.010;8.260;2022-08-27T06:36:51;100238.53;;;21.06;72.73
26657;BME280;14279;50.010;8.260;2022-08-27T06:39:18;100242.25;;;21.13;72.50
26657;BME280;14279;50.010;8.260;2022-08-27T06:41:44;100250.47;;;21.29;72.30
26657;BME280;14279;50.010;8.260;2022-08-27T06:44:10;100247.19;;;20.88;73.51
26657;BME280;14279;50.010;8.260;2022-08-27T06:46:36;100258.44;;;20.70;74.03
26657;BME280;14279;50.010;8.260;2022-08-27T06:49:02;100237.97;;;21.02;73.11
26657;BME280;14279;50.010;8.260;2022-08-27T06:51:31;100252.97;;;21.21;71.94
26657;BME280;14279;50.010;8.260;2022-08-27T06:53:59;100242.81;;;21.26;71.70
26657;BME280;14279;50.010;8.260;2022-08-27T06:56:25;100246.22;;;21.46;71.16
26657;BME280;14279;50.010;8.260;2022-08-27T06:58:54;100249.13;;;21.06;72.61
26657;BME280;14279;50.010;8.260;2022-08-27T07:01:26;100252.72;;;21.14;73.01
26657;BME280;14279;50.010;8.260;2022-08-27T07:03:56;100254.88;;;21.39;71.88
26657;BME280;14279;50.010;8.260;2022-08-27T07:06:23;100250.47;;;21.20;72.01
26657;BME280;14279;50.010;8.260;2022-08-27T07:08:49;100251.03;;;21.23;72.01
26657;BME280;14279;50.010;8.260;2022-08-27T07:11:15;100262.28;;;21.35;71.67
26657;BME280;14279;50.010;8.260;2022-08-27T07:13:41;100252.09;;;21.40;71.44
26657;BME280;14279;50.010;8.260;2022-08-27T07:16:08;100256.13;;;21.35;71.26
26657;BME280;14279;50.010;8.260;2022-08-27T07:18:34;100259.91;;;21.32;71.67
26657;BME280;14279;50.010;8.260;2022-08-27T07:21:00;100259.22;;;21.30;71.65
26657;BME280;14279;50.010;8.260;2022-08-27T07:23:28;100263.09;;;21.36;71.66
26657;BME280;14279;50.010;8.260;2022-08-27T07:25:55;100261.41;;;21.44;70.92
26657;BME280;14279;50.010;8.260;2022-08-27T07:28:20;100259.97;;;21.60;70.67
26657;BME280;14279;50.010;8.260;2022-08-27T07:30:45;100268.72;;;21.70;70.11
26657;BME280;14279;50.010;8.260;2022-08-27T07:33:11;100265.09;;;21.71;70.25
26657;BME280;14279;50.010;8.260;2022-08-27T07:35:36;100264.13;;;21.72;69.94
26657;BME280;14279;50.010;8.260;2022-08-27T07:38:02;100270.19;;;21.45;70.79
26657;BME280;14279;50.010;8.260;2022-08-27T07:40:27;100274.56;;;21.26;71.79
26657;BME280;14279;50.010;8.260;2022-08-27T07:42:52;100268.38;;;21.45;71.27
26657;BME280;14279;50.010;8.260;2022-08-27T07:45:44;100273.34;;;21.58;70.51
26657;BME280;14279;50.010;8.260;2022-08-27T07:48:09;100282.91;;;21.79;69.89
26657;BME280;14279;50.010;8.260;2022-08-27T07:50:35;100271.44;;;21.88;69.36
26657;BME280;14279;50.010;8.260;2022-08-27T07:53:00;100271.97;;;21.92;69.41
26657;BME280;14279;50.010;8.260;2022-08-27T07:55:26;100275.13;;;21.77;69.57
26657;BME280;14279;50.010;8.260;2022-08-27T07:57:51;100277.72;;;22.15;68.36
26657;BME280;14279;50.010;8.260;2022-08-27T08:00:16;100284.03;;;22.32;67.73
26657;BME280;14279;50.010;8.260;2022-08-27T08:02:42;100281.19;;;22.44;66.91
26657;BME280;14279;50.010;8.260;2022-08-27T08:05:09;100271.03;;;22.11;67.67
26657;BME280;14279;50.010;8.260;2022-08-27T08:07:37;100279.09;;;22.19;67.69
26657;BME280;14279;50.010;8.260;2022-08-27T08:10:05;100280.97;;;22.09;67.69
26657;BME280;14279;50.010;8.260;2022-08-27T08:12:30;100279.75;;;22.03;67.92
26657;BME280;14279;50.010;8.260;2022-08-27T08:14:56;100280.69;;;22.30;67.43
26657;BME280;14279;50.010;8.260;2022-08-27T08:17:23;100281.47;;;22.22;67.40
26657;BME280;14279;50.010;8.260;2022-08-27T08:19:50;100279.94;;;22.38;66.92
26657;BME280;14279;50.010;8.260;2022-08-27T08:22:15;100282.56;;;22.66;65.94
26657;BME280;14279;50.010;8.260;2022-08-27T08:27:48;100291.97;;;22.78;64.61
26657;BME280;14279;50.010;8.260;2022-08-27T08:33:36;100296.13;;;22.99;64.11
26657;BME280;14279;50.010;8.260;2022-08-27T08:36:50;100297.34;;;22.69;65.55
26657;BME280;14279;50.010;8.260;2022-08-27T08:39:18;100302.53;;;22.70;65.04
26657;BME280;14279;50.010;8.260;2022-08-27T08:41:51;100295.16;;;22.82;65.61
26657;BME280;14279;50.010;8.260;2022-08-27T08:44:34;100287.13;;;23.18;63.70
26657;BME280;14279;50.010;8.260;2022-08-27T08:52:58;100289.50;;;23.48;62.45
26657;BME280;14279;50.010;8.260;2022-08-27T08:55:36;100284.31;;;23.72;61.28
26657;BME280;14279;50.010;8.260;2022-08-27T09:00:58;100288.91;;;23.27;62.69
26657;BME280;14279;50.010;8.260;2022-08-27T09:03:26;100292.63;;;23.69;61.44
26657;BME280;14279;50.010;8.260;2022-08-27T09:06:00;100296.16;;;24.13;60.53
26657;BME280;14279;50.010;8.260;2022-08-27T09:08:35;100295.41;;;23.94;60.73
26657;BME280;14279;50.010;8.260;2022-08-27T09:14:02;100296.22;;;24.38;59.50
26657;BME280;14279;50.010;8.260;2022-08-27T09:16:29;100293.03;;;24.34;59.23
26657;BME280;14279;50.010;8.260;2022-08-27T09:18:56;100293.56;;;24.46;59.01
26657;BME280;14279;50.010;8.260;2022-08-27T09:21:43;100293.09;;;23.99;60.72
26657;BME280;14279;50.010;8.260;2022-08-27T09:26:58;100291.44;;;23.98;60.57
26657;BME280;14279;50.010;8.260;2022-08-27T09:29:27;100296.38;;;24.36;60.28
26657;BME280;14279;50.010;8.260;2022-08-27T09:31:59;100299.56;;;24.56;59.69
26657;BME280;14279;50.010;8.260;2022-08-27T09:34:34;100291.56;;;24.48;59.76
26657;BME280;14279;50.010;8.260;2022-08-27T09:37:09;100297.53;;;24.34;59.15
26657;BME280;14279;50.010;8.260;2022-08-27T09:39:55;100292.88;;;24.36;59.47
26657;BME280;14279;50.010;8.260;2022-08-27T09:42:36;100290.47;;;24.08;59.70
26657;BME280;14279;50.010;8.260;2022-08-27T09:45:08;100286.78;;;23.66;61.06
26657;BME280;14279;50.010;8.260;2022-08-27T09:47:49;100291.78;;;24.04;60.21
26657;BME280;14279;50.010;8.260;2022-08-27T09:50:19;100285.56;;;24.46;59.27
26657;BME280;14279;50.010;8.260;2022-08-27T09:52:55;100289.97;;;24.97;56.82
26657;BME280;14279;50.010;8.260;2022-08-27T09:55:38;100286.00;;;24.84;57.11
26657;BME280;14279;50.010;8.260;2022-08-27T09:58:16;100283.63;;;24.65;57.31
26657;BME280;14279;50.010;8.260;2022-08-27T10:00:42;100290.31;;;24.85;56.71
26657;BME280;14279;50.010;8.260;2022-08-27T10:03:09;100291.00;;;24.20;57.65
26657;BME280;14279;50.010;8.260;2022-08-27T10:05:47;100286.78;;;24.52;57.02
26657;BME280;14279;50.010;8.260;2022-08-27T10:11:02;100282.47;;;24.84;56.29
26657;BME280;14279;50.010;8.260;2022-08-27T10:13:55;100291.38;;;24.25;57.95
26657;BME280;14279;50.010;8.260;2022-08-27T10:22:35;100285.28;;;24.66;57.52
26657;BME280;14279;50.010;8.260;2022-08-27T10:28:09;100274.75;;;25.39;55.41
26657;BME280;14279;50.010;8.260;2022-08-27T10:38:46;100278.09;;;25.32;54.82
26657;BME280;14279;50.010;8.260;2022-08-27T10:41:33;100276.81;;;24.87;56.14
26657;BME280;14279;50.010;8.260;2022-08-27T10:44:06;100283.13;;;25.19;55.73
26657;BME280;14279;50.010;8.260;2022-08-27T10:51:57;100284.19;;;26.06;53.33
26657;BME280;14279;50.010;8.260;2022-08-27T10:57:22;100279.97;;;25.88;52.91
26657;BME280;14279;50.010;8.260;2022-08-27T11:02:44;100275.75;;;25.94;52.97
26657;BME280;14279;50.010;8.260;2022-08-27T11:07:48;100273.81;;;25.88;52.71
26657;BME280;14279;50.010;8.260;2022-08-27T11:10:27;100271.97;;;25.88;53.40
26657;BME280;14279;50.010;8.260;2022-08-27T11:12:57;100266.94;;;25.54;53.96
26657;BME280;14279;50.010;8.260;2022-08-27T11:15:28;100274.09;;;25.36;54.88
26657;BME280;14279;50.010;8.260;2022-08-27T11:18:09;100269.97;;;25.34;55.11
26657;BME280;14279;50.010;8.260;2022-08-27T11:20:49;100265.84;;;24.73;57.29
26657;BME280;14279;50.010;8.260;2022-08-27T11:23:20;100268.50;;;24.82;57.62
26657;BME280;14279;50.010;8.260;2022-08-27T11:25:52;100269.00;;;24.94;57.89
26657;BME280;14279;50.010;8.260;2022-08-27T11:28:21;100268.47;;;25.06;57.92
26657;BME280;14279;50.010;8.260;2022-08-27T11:33:22;100269.44;;;25.30;57.33
26657;BME280;14279;50.010;8.260;2022-08-27T11:36:16;100259.13;;;25.35;56.99
26657;BME280;14279;50.010;8.260;2022-08-27T11:39:09;100260.78;;;25.36;56.78
26657;BME280;14279;50.010;8.260;2022-08-27T11:41:53;100257.97;;;25.38;56.81
26657;BME280;14279;50.010;8.260;2022-08-27T11:44:24;100262.06;;;25.57;56.73
26657;BME280;14279;50.010;8.260;2022-08-27T11:47:07;100268.41;;;25.56;56.95
26657;BME280;14279;50.010;8.260;2022-08-27T11:50:33;100266.72;;;25.72;56.15
26657;BME280;14279;50.010;8.260;2022-08-27T11:54:05;100270.97;;;25.81;55.68
26657;BME280;14279;50.010;8.260;2022-08-27T12:00:52;100263.38;;;25.70;55.89
26657;BME280;14279;50.010;8.260;2022-08-27T12:03:32;100269.97;;;25.90;55.17
26657;BME280;14279;50.010;8.260;2022-08-27T12:08:33;100273.59;;;25.41;56.02
26657;BME280;14279;50.010;8.260;2022-08-27T12:11:25;100267.44;;;25.49;55.31
26657;BME280;14279;50.010;8.260;2022-08-27T12:25:24;100264.59;;;25.59;55.02
26657;BME280;14279;50.010;8.260;2022-08-27T12:28:21;100265.31;;;25.84;54.54
26657;BME280;14279;50.010;8.260;2022-08-27T12:31:02;100262.38;;;25.71;55.28
26657;BME280;14279;50.010;8.260;2022-08-27T12:33:33;100256.53;;;25.75;55.22
26657;BME280;14279;50.010;8.260;2022-08-27T12:36:09;100256.63;;;25.90;55.04
26657;BME280;14279;50.010;8.260;2022-08-27T12:38:44;100250.59;;;25.57;55.59
26657;BME280;14279;50.010;8.260;2022-08-27T12:41:29;100255.94;;;25.48;54.79
26657;BME280;14279;50.010;8.260;2022-08-27T12:44:10;100267.34;;;25.09;58.82
26657;BME280;14279;50.010;8.260;2022-08-27T12:46:50;100252.50;;;24.49;61.25
26657;BME280;14279;50.010;8.260;2022-08-27T12:49:22;100258.28;;;24.19;61.83
26657;BME280;14279;50.010;8.260;2022-08-27T12:51:51;100259.47;;;23.47;65.78
26657;BME280;14279;50.010;8.260;2022-08-27T12:57:55;100255.75;;;24.09;64.52
26657;BME280;14279;50.010;8.260;2022-08-27T13:00:10;100254.13;;;24.33;64.37
26657;BME280;14279;50.010;8.260;2022-08-27T13:05:58;100253.81;;;24.36;63.45
26657;BME280;14279;50.010;8.260;2022-08-27T13:08:30;100255.81;;;24.26;64.65
26657;BME280;14279;50.010;8.260;2022-08-27T13:11:06;100249.03;;;23.97;65.01
26657;BME280;14279;50.010;8.260;2022-08-27T13:13:31;100256.97;;;23.80;65.06
26657;BME280;14279;50.010;8.260;2022-08-27T13:16:00;100259.06;;;24.03;63.94
26657;BME280;14279;50.010;8.260;2022-08-27T13:18:26;100252.28;;;24.17;63.77
26657;BME280;14279;50.010;8.260;2022-08-27T13:21:00;100251.50;;;24.41;61.78
26657;BME280;14279;50.010;8.260;2022-08-27T13:23:26;100246.03;;;24.43;62.17
26657;BME280;14279;50.010;8.260;2022-08-27T13:26:05;100248.38;;;24.79;59.16
26657;BME280;14279;50.010;8.260;2022-08-27T13:28:32;100253.50;;;25.05;60.15
26657;BME280;14279;50.010;8.260;2022-08-27T13:30:58;100251.31;;;25.34;58.70
26657;BME280;14279;50.010;8.260;2022-08-27T13:33:27;100247.19;;;25.79;58.56
26657;BME280;14279;50.010;8.260;2022-08-27T13:36:35;100244.84;;;25.76;57.04
26657;BME280;14279;50.010;8.260;2022-08-27T13:42:40;100241.25;;;26.32;55.32
26657;BME280;14279;50.010;8.260;2022-08-27T13:45:07;100241.47;;;25.43;57.17
26657;BME280;14279;50.010;8.260;2022-08-27T13:47:43;100233.31;;;25.84;56.29
26657;BME280;14279;50.010;8.260;2022-08-27T13:50:24;100233.34;;;25.28;57.21
26657;BME280;14279;50.010;8.260;2022-08-27T13:52:51;100240.41;;;25.60;56.32
26657;BME280;14279;50.010;8.260;2022-08-27T13:55:44;100239.00;;;25.16;56.43
26657;BME280;14279;50.010;8.260;2022-08-27T13:58:28;100234.16;;;25.28;56.90
26657;BME280;14279;50.010;8.260;2022-08-27T14:00:54;100231.38;;;24.97;56.07
26657;BME280;14279;50.010;8.260;2022-08-27T14:03:33;100237.75;;;24.87;56.62
26657;BME280;14279;50.010;8.260;2022-08-27T14:05:59;100230.75;;;24.86;55.75
26657;BME280;14279;50.010;8.260;2022-08-27T14:08:31;100222.41;;;24.98;55.90
26657;BME280;14279;50.010;8.260;2022-08-27T14:11:08;100219.88;;;25.13;55.06
26657;BME280;14279;50.010;8.260;2022-08-27T14:13:43;100232.38;;;25.04;55.65
26657;BME280;14279;50.010;8.260;2022-08-27T14:16:25;100230.06;;;24.92;56.05
26657;BME280;14279;50.010;8.260;2022-08-27T14:21:30;100238.53;;;24.30;58.27
26657;BME280;14279;50.010;8.260;2022-08-27T14:23:56;100238.31;;;24.23;58.88
26657;BME280;14279;50.010;8.260;2022-08-27T14:26:21;100249.63;;;24.25;59.47
26657;BME280;14279;50.010;8.260;2022-08-27T14:28:46;100233.94;;;23.97;59.89
26657;BME280;14279;50.010;8.260;2022-08-27T14:31:13;100230.22;;;23.82;59.66
26657;BME280;14279;50.010;8.260;2022-08-27T14:33:40;100228.22;;;23.84;60.37
26657;BME280;14279;50.010;8.260;2022-08-27T14:36:07;100234.25;;;23.94;59.82